createdAt,value
2023-03-04T00:01:50.583Z,13.83
2023-03-04T00:04:19.416Z,14.17
2023-03-04T00:06:48.434Z,14.30
2023-03-04T00:09:18.648Z,14.40
2023-03-04T00:11:47.124Z,14.00
2023-03-04T00:14:15.870Z,13.67
2023-03-04T00:16:44.346Z,14.73
2023-03-04T00:19:13.148Z,15.23
2023-03-04T00:21:41.779Z,14.23
2023-03-04T00:24:10.949Z,15.67
2023-03-04T00:26:40.734Z,16.17
2023-03-04T00:29:09.467Z,15.87
2023-03-04T00:31:38.419Z,13.67
2023-03-04T00:34:07.171Z,12.77
2023-03-04T00:36:35.645Z,14.07
2023-03-04T00:39:04.348Z,14.40
2023-03-04T00:41:32.838Z,15.07
2023-03-04T00:44:03.172Z,13.23
2023-03-04T00:46:31.638Z,13.13
2023-03-04T00:49:00.402Z,14.40
2023-03-04T00:51:29.469Z,14.77
2023-03-04T00:54:00.698Z,13.87
2023-03-04T00:56:29.528Z,15.97
2023-03-04T00:58:58.298Z,12.50
2023-03-04T01:01:28.625Z,12.27
2023-03-04T01:03:57.360Z,12.93
2023-03-04T01:06:25.805Z,14.03
2023-03-04T01:08:54.484Z,11.47
2023-03-04T01:11:23.163Z,12.53
2023-03-04T01:13:51.962Z,14.43
2023-03-04T01:16:20.460Z,14.93
2023-03-04T01:18:51.424Z,13.50
2023-03-04T01:21:19.956Z,14.20
2023-03-04T01:23:48.771Z,12.00
2023-03-04T01:26:17.179Z,14.20
2023-03-04T01:28:45.915Z,12.87
2023-03-04T01:31:14.349Z,12.23
2023-03-04T01:33:43.173Z,11.73
2023-03-04T01:36:13.392Z,11.67
2023-03-04T01:38:42.131Z,12.97
2023-03-04T01:41:12.483Z,13.97
2023-03-04T01:43:41.417Z,12.17
2023-03-04T01:46:15.135Z,13.07
2023-03-04T01:48:44.656Z,13.70
2023-03-04T01:51:17.907Z,12.63
2023-03-04T01:53:50.126Z,13.50
2023-03-04T01:56:23.914Z,15.00
2023-03-04T01:59:14.632Z,11.70
2023-03-04T02:01:45.548Z,13.43
2023-03-04T02:04:15.250Z,11.77
2023-03-04T02:06:46.353Z,13.90
2023-03-04T02:09:16.555Z,12.27
2023-03-04T02:11:46.362Z,14.10
2023-03-04T02:14:16.332Z,12.17
2023-03-04T02:16:45.003Z,12.27
2023-03-04T02:19:18.875Z,10.03
2023-03-04T02:21:48.717Z,12.53
2023-03-04T02:24:21.724Z,12.53
2023-03-04T02:26:52.655Z,12.93
2023-03-04T02:29:21.641Z,13.60
2023-03-04T02:31:51.887Z,13.07
2023-03-04T02:34:22.797Z,14.27
2023-03-04T02:36:53.641Z,12.57
2023-03-04T02:39:31.385Z,14.20
2023-03-04T02:42:02.906Z,12.93
2023-03-04T02:44:36.205Z,12.87
2023-03-04T02:47:06.933Z,12.77
2023-03-04T02:49:38.209Z,14.17
2023-03-04T02:52:08.443Z,12.17
2023-03-04T02:54:39.756Z,12.97
2023-03-04T02:57:11.814Z,12.40
2023-03-04T02:59:43.953Z,13.30
2023-03-04T03:02:17.413Z,12.30
2023-03-04T03:04:46.329Z,11.70
2023-03-04T03:07:17.748Z,11.33
2023-03-04T03:09:46.636Z,12.73
2023-03-04T03:12:16.466Z,11.97
2023-03-04T03:14:45.237Z,10.90
2023-03-04T03:17:15.662Z,10.90
2023-03-04T03:19:44.384Z,13.57
2023-03-04T03:22:13.439Z,12.37
2023-03-04T03:24:42.170Z,12.47
2023-03-04T03:27:10.659Z,13.63
2023-03-04T03:29:40.814Z,10.43
2023-03-04T03:32:10.206Z,13.17
2023-03-04T03:34:39.156Z,12.63
2023-03-04T03:37:07.756Z,11.53
2023-03-04T03:39:36.470Z,10.13
2023-03-04T03:42:05.155Z,13.27
2023-03-04T03:44:34.062Z,12.50
2023-03-04T03:47:04.000Z,11.50
2023-03-04T03:49:32.999Z,12.63
2023-03-04T03:52:01.438Z,13.87
2023-03-04T03:54:30.611Z,11.67
2023-03-04T03:56:59.042Z,14.13
2023-03-04T03:59:28.001Z,13.73
2023-03-04T04:01:56.467Z,12.27
2023-03-04T04:04:26.900Z,11.80
2023-03-04T04:06:55.424Z,11.97
2023-03-04T04:09:24.226Z,21.27
2023-03-04T04:11:52.700Z,11.30
2023-03-04T04:14:21.496Z,14.43
2023-03-04T04:16:49.974Z,11.70
2023-03-04T04:19:20.211Z,13.27
2023-03-04T04:21:50.656Z,10.67
2023-03-04T04:24:20.043Z,10.60
2023-03-04T04:26:48.585Z,12.03
2023-03-04T04:29:18.237Z,12.97
2023-03-04T04:31:46.748Z,10.23
2023-03-04T04:34:15.530Z,10.33
2023-03-04T04:36:44.016Z,10.10
2023-03-04T04:39:14.609Z,10.67
2023-03-04T04:41:44.788Z,10.17
2023-03-04T04:44:14.195Z,10.73
2023-03-04T04:46:43.235Z,10.90
2023-03-04T04:49:12.019Z,11.33
2023-03-04T04:51:40.968Z,11.07
2023-03-04T04:54:09.818Z,9.50
2023-03-04T04:56:39.660Z,11.27
2023-03-04T04:59:09.710Z,10.77
2023-03-04T05:01:38.745Z,8.97
2023-03-04T05:04:07.457Z,9.43
2023-03-04T05:06:35.917Z,10.13
2023-03-04T05:09:05.890Z,8.97
2023-03-04T05:11:34.603Z,10.27
2023-03-04T05:14:04.863Z,9.67
2023-03-04T05:16:33.337Z,7.97
2023-03-04T05:19:02.077Z,8.03
2023-03-04T05:21:30.506Z,9.53
2023-03-04T05:23:59.286Z,8.53
2023-03-04T05:26:27.764Z,9.50
2023-03-04T05:28:56.525Z,8.70
2023-03-04T05:31:26.357Z,8.60
2023-03-04T05:33:55.273Z,10.93
2023-03-04T05:36:23.740Z,10.33
2023-03-04T05:38:52.514Z,9.53
2023-03-04T05:41:22.689Z,11.00
2023-03-04T05:43:51.726Z,8.93
2023-03-04T05:46:25.330Z,9.53
2023-03-04T05:48:56.088Z,8.70
2023-03-04T05:51:24.841Z,10.00
2023-03-04T05:53:53.497Z,10.93
2023-03-04T05:56:22.335Z,8.67
2023-03-04T05:58:51.075Z,9.67
2023-03-04T06:01:19.688Z,8.13
2023-03-04T06:03:49.336Z,7.63
2023-03-04T06:06:19.442Z,10.10
2023-03-04T06:08:48.207Z,6.67
2023-03-04T06:11:16.664Z,7.80
2023-03-04T06:13:45.809Z,8.73
2023-03-04T06:16:14.377Z,10.43
2023-03-04T06:18:43.127Z,6.77
2023-03-04T06:21:11.574Z,9.07
2023-03-04T06:23:42.095Z,7.70
2023-03-04T06:26:15.304Z,8.07
2023-03-04T06:28:44.558Z,8.17
2023-03-04T06:31:13.045Z,9.10
2023-03-04T06:33:41.746Z,6.93
2023-03-04T06:36:10.300Z,7.43
2023-03-04T06:38:39.391Z,9.10
2023-03-04T06:41:10.363Z,8.20
2023-03-04T06:43:39.333Z,8.30
2023-03-04T06:46:08.407Z,7.30
2023-03-04T06:48:37.554Z,7.00
2023-03-04T06:51:10.003Z,9.00
2023-03-04T06:53:39.684Z,7.83
2023-03-04T06:56:12.261Z,9.17
2023-03-04T06:58:40.980Z,8.60
2023-03-04T07:01:14.257Z,8.03
2023-03-04T07:03:44.245Z,9.23
2023-03-04T07:06:14.277Z,8.50
2023-03-04T07:08:43.535Z,7.63
2023-03-04T07:11:13.659Z,9.80
2023-03-04T07:13:42.964Z,8.37
2023-03-04T07:16:13.681Z,8.27
2023-03-04T07:18:42.548Z,8.50
2023-03-04T07:21:11.577Z,8.33
2023-03-04T07:23:40.626Z,6.70
2023-03-04T07:26:09.438Z,8.63
2023-03-04T07:28:40.243Z,7.60
2023-03-04T07:31:14.003Z,7.83
2023-03-04T07:33:42.908Z,8.53
2023-03-04T07:36:11.362Z,7.33
2023-03-04T07:38:40.126Z,7.30
2023-03-04T07:41:08.508Z,7.10
2023-03-04T07:43:38.911Z,7.93
2023-03-04T07:46:07.470Z,7.23
2023-03-04T07:48:37.205Z,7.90
2023-03-04T07:51:08.300Z,6.60
2023-03-04T07:53:38.542Z,7.57
2023-03-04T07:56:08.822Z,8.40
2023-03-04T07:58:38.959Z,9.00
2023-03-04T08:01:11.350Z,8.13
2023-03-04T08:03:40.279Z,7.87
2023-03-04T08:06:09.916Z,6.90
2023-03-04T08:08:38.830Z,8.83
2023-03-04T08:11:07.947Z,7.37
2023-03-04T08:13:37.038Z,7.37
2023-03-04T08:16:08.258Z,7.73
2023-03-04T08:18:37.048Z,7.00
2023-03-04T08:21:10.177Z,8.23
2023-03-04T08:23:39.076Z,7.77
2023-03-04T08:26:08.761Z,6.93
2023-03-04T08:28:37.957Z,7.83
2023-03-04T08:31:08.452Z,7.03
2023-03-04T08:33:37.671Z,7.43
2023-03-04T08:36:06.879Z,6.93
2023-03-04T08:38:36.168Z,6.17
2023-03-04T08:41:04.872Z,7.00
2023-03-04T08:43:34.757Z,6.53
2023-03-04T08:46:03.671Z,5.53
2023-03-04T08:48:34.223Z,6.73
2023-03-04T08:51:02.713Z,6.43
2023-03-04T08:53:31.425Z,8.03
2023-03-04T08:56:00.283Z,7.47
2023-03-04T08:58:29.064Z,6.53
2023-03-04T09:00:57.919Z,7.40
2023-03-04T09:03:26.785Z,7.23
2023-03-04T09:05:57.021Z,6.47
2023-03-04T09:08:25.871Z,8.13
2023-03-04T09:10:55.415Z,6.73
2023-03-04T09:13:26.397Z,6.93
2023-03-04T09:15:55.028Z,7.27
2023-03-04T09:18:25.238Z,6.97
2023-03-04T09:20:54.490Z,7.60
2023-03-04T09:23:24.641Z,8.77
2023-03-04T09:25:53.194Z,8.63
2023-03-04T09:28:22.269Z,8.03
2023-03-04T09:30:50.706Z,8.20
2023-03-04T09:33:19.653Z,8.63
2023-03-04T09:35:49.881Z,9.07
2023-03-04T09:38:18.617Z,8.43
2023-03-04T09:40:50.575Z,8.93
2023-03-04T09:43:23.558Z,9.63
2023-03-04T09:45:56.786Z,8.37
2023-03-04T09:48:29.083Z,7.93
2023-03-04T09:51:15.296Z,7.50
2023-03-04T09:53:55.070Z,8.60
2023-03-04T09:56:24.871Z,8.30
2023-03-04T09:59:04.343Z,6.50
2023-03-04T10:01:37.490Z,6.00
2023-03-04T10:04:14.270Z,7.10
2023-03-04T10:06:46.932Z,8.40
2023-03-04T10:09:18.936Z,7.93
2023-03-04T10:11:52.387Z,8.50
2023-03-04T10:14:34.778Z,6.23
2023-03-04T10:17:11.257Z,7.67
2023-03-04T10:19:52.238Z,6.20
2023-03-04T10:22:28.574Z,5.50
2023-03-04T10:24:59.112Z,5.97
2023-03-04T10:27:30.217Z,7.10
2023-03-04T10:30:01.948Z,6.40
2023-03-04T10:32:30.412Z,4.83
2023-03-04T10:34:59.108Z,5.90
2023-03-04T10:37:46.274Z,6.50
2023-03-04T10:40:23.712Z,5.27
2023-03-04T10:42:54.974Z,5.13
2023-03-04T10:45:26.354Z,5.47
2023-03-04T10:47:56.144Z,4.43
2023-03-04T10:50:26.408Z,6.53
2023-03-04T10:52:56.016Z,5.07
2023-03-04T10:55:28.337Z,5.53
2023-03-04T10:58:04.605Z,5.13
2023-03-04T11:00:34.820Z,4.53
2023-03-04T11:03:24.035Z,5.03
2023-03-04T11:05:53.569Z,5.13
2023-03-04T11:08:24.410Z,6.63
2023-03-04T11:10:53.179Z,5.30
2023-03-04T11:13:24.274Z,5.20
2023-03-04T11:15:58.017Z,5.87
2023-03-04T11:18:33.464Z,5.03
2023-03-04T11:21:02.629Z,4.80
2023-03-04T11:23:36.863Z,5.60
2023-03-04T11:26:11.362Z,5.13
2023-03-04T11:28:45.719Z,5.63
2023-03-04T11:31:19.391Z,4.53
2023-03-04T11:33:52.494Z,5.57
2023-03-04T11:36:31.219Z,4.93
2023-03-04T11:39:00.376Z,6.00
2023-03-04T11:41:32.290Z,5.23
2023-03-04T11:44:03.348Z,5.27
2023-03-04T11:47:01.123Z,4.90
2023-03-04T11:50:02.314Z,5.30
2023-03-04T11:52:53.479Z,6.20
2023-03-04T11:55:38.629Z,5.97
2023-03-04T11:58:22.137Z,5.70
2023-03-04T12:00:57.065Z,5.97
2023-03-04T12:03:54.603Z,5.67
2023-03-04T12:06:34.657Z,5.37
2023-03-04T12:09:19.485Z,6.50
2023-03-04T12:11:55.896Z,4.60
2023-03-04T12:14:34.656Z,6.03
2023-03-04T12:17:20.356Z,6.20
2023-03-04T12:20:06.132Z,6.97
2023-03-04T12:22:44.548Z,4.93
2023-03-04T12:25:39.747Z,6.93
2023-03-04T12:28:27.735Z,5.73
2023-03-04T12:31:23.736Z,5.90
2023-03-04T12:34:18.346Z,8.47
2023-03-04T12:36:55.843Z,6.33
2023-03-04T12:39:33.324Z,4.80
2023-03-04T12:42:12.453Z,6.00
2023-03-04T12:44:47.911Z,6.87
2023-03-04T12:47:31.180Z,6.13
2023-03-04T12:50:24.026Z,5.60
2023-03-04T12:53:00.755Z,6.17
2023-03-04T12:55:38.241Z,6.47
2023-03-04T12:58:08.605Z,8.07
2023-03-04T13:00:48.456Z,7.23
2023-03-04T13:03:22.793Z,4.93
2023-03-04T13:06:06.797Z,6.20
2023-03-04T13:08:42.169Z,5.50
2023-03-04T13:11:47.886Z,5.67
2023-03-04T13:14:28.288Z,3.67
2023-03-04T13:16:58.936Z,4.27
2023-03-04T13:19:51.017Z,5.03
2023-03-04T13:22:34.126Z,5.20
2023-03-04T13:25:19.891Z,4.80
2023-03-04T13:27:50.240Z,4.93
2023-03-04T13:30:42.208Z,4.63
2023-03-04T13:33:53.641Z,5.00
2023-03-04T13:36:59.489Z,5.10
2023-03-04T13:39:36.589Z,4.37
2023-03-04T13:42:21.266Z,4.60
2023-03-04T13:45:00.654Z,4.47
2023-03-04T13:47:49.787Z,4.47
2023-03-04T13:50:31.729Z,4.73
2023-03-04T13:53:17.503Z,4.27
2023-03-04T13:56:16.585Z,4.37
2023-03-04T13:58:46.548Z,6.87
2023-03-04T14:01:27.020Z,5.87
2023-03-04T14:03:56.614Z,4.50
2023-03-04T14:06:27.387Z,3.77
2023-03-04T14:08:57.290Z,4.57
2023-03-04T14:11:35.189Z,4.70
2023-03-04T14:14:08.749Z,5.73
2023-03-04T14:16:40.850Z,5.10
2023-03-04T14:19:18.187Z,5.67
2023-03-04T14:21:47.878Z,4.80
2023-03-04T14:24:18.885Z,4.10
2023-03-04T14:26:49.128Z,4.37
2023-03-04T14:29:24.025Z,5.30
2023-03-04T14:31:53.168Z,3.93
2023-03-04T14:34:33.228Z,6.83
2023-03-04T14:37:03.197Z,7.27
2023-03-04T14:39:37.063Z,4.47
2023-03-04T14:42:12.978Z,5.40
2023-03-04T14:44:48.802Z,5.37
2023-03-04T14:47:21.105Z,5.30
2023-03-04T14:49:50.296Z,4.73
2023-03-04T14:52:35.432Z,6.03
2023-03-04T14:55:18.393Z,5.43
2023-03-04T14:57:51.344Z,5.00
2023-03-04T15:00:29.364Z,5.77
2023-03-04T15:03:00.197Z,5.80
2023-03-04T15:05:30.626Z,5.43
2023-03-04T15:08:01.482Z,4.57
2023-03-04T15:10:32.562Z,4.87
2023-03-04T15:13:04.356Z,5.70
2023-03-04T15:15:37.331Z,5.10
2023-03-04T15:18:16.635Z,4.43
2023-03-04T15:20:58.317Z,5.83
2023-03-04T15:23:27.154Z,5.50
2023-03-04T15:25:57.620Z,6.63
2023-03-04T15:28:31.496Z,4.97
2023-03-04T15:31:00.247Z,5.93
2023-03-04T15:33:28.778Z,7.50
2023-03-04T15:36:00.030Z,4.83
2023-03-04T15:38:29.310Z,5.70
2023-03-04T15:40:59.645Z,6.47
2023-03-04T15:43:29.600Z,4.77
2023-03-04T15:45:58.322Z,5.90
2023-03-04T15:48:26.918Z,6.67
2023-03-04T15:50:58.403Z,5.30
2023-03-04T15:53:33.427Z,6.70
2023-03-04T15:56:03.147Z,6.17
2023-03-04T15:58:35.176Z,6.43
2023-03-04T16:01:04.340Z,6.70
2023-03-04T16:03:33.119Z,7.53
2023-03-04T16:06:01.916Z,6.23
2023-03-04T16:08:30.427Z,6.33
2023-03-04T16:10:59.159Z,6.57
2023-03-04T16:13:27.551Z,6.80
2023-03-04T16:15:57.765Z,5.87
2023-03-04T16:18:26.375Z,6.00
2023-03-04T16:20:55.148Z,5.87
2023-03-04T16:23:25.634Z,6.73
2023-03-04T16:25:57.293Z,6.53
2023-03-04T16:28:25.723Z,5.87
2023-03-04T16:30:54.563Z,6.67
2023-03-04T16:33:24.462Z,5.37
2023-03-04T16:35:53.428Z,6.67
2023-03-04T16:38:27.073Z,6.80
2023-03-04T16:40:56.433Z,5.77
2023-03-04T16:43:25.534Z,7.80
2023-03-04T16:45:54.314Z,7.13
2023-03-04T16:48:24.116Z,7.57
2023-03-04T16:50:52.913Z,6.43
2023-03-04T16:53:29.943Z,8.03
2023-03-04T16:55:59.792Z,6.20
2023-03-04T16:58:28.543Z,6.70
2023-03-04T17:00:57.681Z,7.27
2023-03-04T17:03:27.568Z,7.33
2023-03-04T17:05:56.464Z,6.80
2023-03-04T17:08:24.894Z,6.93
2023-03-04T17:10:53.961Z,9.03
2023-03-04T17:13:22.375Z,8.47
2023-03-04T17:15:51.117Z,10.13
2023-03-04T17:18:19.581Z,8.77
2023-03-04T17:20:49.765Z,6.00
2023-03-04T17:23:18.266Z,6.37
2023-03-04T17:25:47.086Z,5.77
2023-03-04T17:28:15.510Z,5.93
2023-03-04T17:30:44.207Z,6.23
2023-03-04T17:33:12.654Z,6.10
2023-03-04T17:35:41.471Z,5.87
2023-03-04T17:38:11.745Z,6.43
2023-03-04T17:40:40.647Z,6.87
2023-03-04T17:43:12.191Z,7.13
2023-03-04T17:45:41.610Z,7.13
2023-03-04T17:48:14.859Z,7.13
2023-03-04T17:50:49.933Z,7.90
2023-03-04T17:53:20.674Z,8.37
2023-03-04T17:55:53.422Z,6.93
2023-03-04T17:58:22.294Z,6.43
2023-03-04T18:00:53.700Z,8.13
2023-03-04T18:03:22.244Z,7.27
2023-03-04T18:05:51.328Z,6.53
2023-03-04T18:08:24.022Z,7.97
2023-03-04T18:10:52.939Z,6.60
2023-03-04T18:13:21.626Z,6.97
2023-03-04T18:15:50.364Z,7.27
2023-03-04T18:18:18.884Z,6.97
2023-03-04T18:20:48.137Z,6.77
2023-03-04T18:23:16.607Z,7.07
2023-03-04T18:25:46.677Z,7.00
2023-03-04T18:28:15.139Z,6.70
2023-03-04T18:30:43.902Z,7.50
2023-03-04T18:33:12.556Z,6.50
2023-03-04T18:35:41.332Z,11.83
2023-03-04T18:38:09.928Z,8.67
2023-03-04T18:40:40.617Z,6.40
2023-03-04T18:43:10.508Z,7.07
2023-03-04T18:45:39.281Z,7.90
2023-03-04T18:48:07.918Z,6.97
2023-03-04T18:50:36.590Z,7.40
2023-03-04T18:53:05.680Z,6.43
2023-03-04T18:55:34.450Z,6.83
2023-03-04T18:58:04.355Z,6.17
2023-03-04T19:00:34.887Z,8.13
2023-03-04T19:03:08.398Z,7.60
2023-03-04T19:05:37.681Z,7.17
2023-03-04T19:08:06.849Z,8.47
2023-03-04T19:10:35.554Z,7.43
2023-03-04T19:13:04.003Z,7.20
2023-03-04T19:15:34.523Z,8.03
2023-03-04T19:18:03.018Z,7.43
2023-03-04T19:20:32.103Z,7.17
2023-03-04T19:23:00.705Z,8.00
2023-03-04T19:25:29.423Z,6.37
2023-03-04T19:27:58.100Z,7.00
2023-03-04T19:30:26.896Z,6.43
2023-03-04T19:32:56.721Z,6.03
2023-03-04T19:35:25.515Z,7.00
2023-03-04T19:37:54.063Z,6.40
2023-03-04T19:40:24.675Z,6.90
2023-03-04T19:42:53.200Z,6.93
2023-03-04T19:45:22.111Z,6.83
2023-03-04T19:47:50.727Z,5.60
2023-03-04T19:50:21.076Z,5.80
2023-03-04T19:52:49.520Z,6.60
2023-03-04T19:55:18.556Z,5.60
2023-03-04T19:57:47.160Z,5.53
2023-03-04T20:00:16.485Z,6.80
2023-03-04T20:02:46.537Z,5.47
2023-03-04T20:05:15.304Z,6.03
2023-03-04T20:07:45.161Z,7.10
2023-03-04T20:10:15.500Z,6.77
2023-03-04T20:12:44.021Z,6.57
2023-03-04T20:15:13.250Z,7.20
2023-03-04T20:17:41.707Z,7.93
2023-03-04T20:20:12.534Z,7.57
2023-03-04T20:22:41.139Z,8.13
2023-03-04T20:25:11.672Z,9.23
2023-03-04T20:27:40.278Z,9.97
2023-03-04T20:30:10.759Z,11.10
2023-03-04T20:32:39.294Z,11.63
2023-03-04T20:35:13.945Z,13.50
2023-03-04T20:37:43.353Z,12.53
2023-03-04T20:40:14.560Z,12.60
2023-03-04T20:42:43.226Z,12.00
2023-03-04T20:45:12.924Z,10.93
2023-03-04T20:47:41.820Z,11.13
2023-03-04T20:50:12.479Z,11.00
2023-03-04T20:52:41.784Z,9.77
2023-03-04T20:55:14.903Z,10.17
2023-03-04T20:57:43.452Z,10.47
2023-03-04T21:00:13.562Z,12.93
2023-03-04T21:02:42.247Z,11.90
2023-03-04T21:05:11.396Z,14.73
2023-03-04T21:07:39.959Z,14.30
2023-03-04T21:10:09.701Z,14.60
2023-03-04T21:12:39.717Z,13.40
2023-03-04T21:15:09.779Z,14.03
2023-03-04T21:17:38.414Z,12.17
2023-03-04T21:20:08.537Z,12.20
2023-03-04T21:22:37.190Z,9.70
2023-03-04T21:25:07.278Z,10.03
2023-03-04T21:27:38.770Z,10.83
2023-03-04T21:30:10.830Z,11.00
2023-03-04T21:32:40.181Z,10.43
2023-03-04T21:35:13.354Z,11.33
2023-03-04T21:37:42.416Z,12.33
2023-03-04T21:40:12.549Z,11.47
2023-03-04T21:42:41.115Z,12.67
2023-03-04T21:45:12.680Z,13.60
2023-03-04T21:47:41.583Z,14.47
2023-03-04T21:50:11.654Z,14.23
2023-03-04T21:52:40.214Z,13.53
2023-03-04T21:55:09.620Z,14.07
2023-03-04T21:57:38.231Z,13.47
2023-03-04T22:00:08.280Z,14.17
2023-03-04T22:02:44.014Z,14.33
2023-03-04T22:05:12.782Z,15.73
2023-03-04T22:07:41.264Z,15.57
2023-03-04T22:10:11.129Z,14.83
2023-03-04T22:12:39.644Z,14.50
2023-03-04T22:15:09.153Z,14.70
2023-03-04T22:17:37.663Z,13.60
2023-03-04T22:20:09.110Z,13.37
2023-03-04T22:22:37.643Z,13.63
2023-03-04T22:25:07.104Z,13.20
2023-03-04T22:27:35.518Z,13.53
2023-03-04T22:30:04.703Z,12.43
2023-03-04T22:32:33.262Z,11.27
2023-03-04T22:35:18.768Z,12.43
2023-03-04T22:37:47.553Z,11.73
2023-03-04T22:40:16.397Z,11.53
2023-03-04T22:42:45.932Z,12.67
2023-03-04T22:45:16.612Z,11.73
2023-03-04T22:47:49.423Z,11.17
2023-03-04T22:50:20.516Z,11.93
2023-03-04T22:52:49.956Z,10.33
2023-03-04T22:55:20.826Z,12.07
2023-03-04T22:57:49.919Z,11.70
2023-03-04T23:00:22.289Z,11.27
2023-03-04T23:02:51.606Z,9.33
2023-03-04T23:05:21.603Z,10.47
2023-03-04T23:07:51.485Z,9.30
2023-03-04T23:10:23.550Z,10.07
2023-03-04T23:12:53.289Z,9.90
2023-03-04T23:15:22.226Z,9.97
2023-03-04T23:17:51.346Z,10.43
2023-03-04T23:20:22.671Z,9.17
2023-03-04T23:22:51.569Z,10.53
2023-03-04T23:25:20.158Z,9.63
2023-03-04T23:27:48.861Z,8.73
2023-03-04T23:30:17.723Z,8.70
2023-03-04T23:32:46.533Z,9.77
2023-03-04T23:35:14.947Z,8.50
2023-03-04T23:37:45.009Z,9.67
2023-03-04T23:40:14.230Z,9.30
2023-03-04T23:42:42.989Z,7.63
2023-03-04T23:45:12.221Z,8.00
2023-03-04T23:47:40.928Z,8.43
2023-03-04T23:50:11.020Z,8.87
2023-03-04T23:52:39.691Z,7.30
2023-03-04T23:55:14.229Z,8.93
2023-03-04T23:57:42.984Z,10.13
